createdAt,value
2023-05-12T00:00:19.118Z,78.69
2023-05-12T00:01:18.890Z,85.09
2023-05-12T00:02:18.894Z,93.69
2023-05-12T00:03:19.012Z,90.09
2023-05-12T00:04:18.879Z,83.90
2023-05-12T00:05:18.838Z,79.50
2023-05-12T00:06:18.846Z,76.19
2023-05-12T00:07:18.823Z,87.30
2023-05-12T00:08:18.798Z,78.30
2023-05-12T00:09:18.803Z,83.19
2023-05-12T00:10:19.116Z,65.40
2023-05-12T00:11:18.760Z,80.90
2023-05-12T00:12:18.746Z,72.19
2023-05-12T00:13:18.818Z,78.00
2023-05-12T00:14:18.732Z,71.90
2023-05-12T00:15:18.735Z,68.80
2023-05-12T00:16:18.807Z,68.40
2023-05-12T00:17:18.723Z,81.59
2023-05-12T00:18:18.742Z,88.00
2023-05-12T00:19:18.737Z,88.69
2023-05-12T00:20:18.972Z,71.19
2023-05-12T00:21:18.681Z,71.40
2023-05-12T00:22:18.641Z,81.90
2023-05-12T00:23:18.653Z,82.59
2023-05-12T00:24:18.624Z,76.40
2023-05-12T00:25:18.615Z,75.59
2023-05-12T00:26:18.595Z,73.19
2023-05-12T00:27:18.618Z,83.50
2023-05-12T00:28:18.694Z,85.09
2023-05-12T00:29:18.569Z,85.40
2023-05-12T00:30:18.908Z,85.09
2023-05-12T00:31:18.591Z,88.19
2023-05-12T00:32:18.570Z,77.00
2023-05-12T00:33:18.554Z,90.00
2023-05-12T00:34:18.531Z,85.09
2023-05-12T00:35:18.537Z,67.19
2023-05-12T00:36:18.511Z,78.90
2023-05-12T00:37:18.505Z,75.09
2023-05-12T00:38:18.473Z,89.09
2023-05-12T00:39:18.476Z,81.30
2023-05-12T00:40:18.662Z,96.90
2023-05-12T00:41:18.453Z,87.90
2023-05-12T00:42:18.434Z,83.69
2023-05-12T00:43:18.424Z,87.80
2023-05-12T00:44:18.420Z,83.80
2023-05-12T00:45:18.406Z,89.69
2023-05-12T00:46:18.404Z,96.40
2023-05-12T00:47:18.385Z,97.90
2023-05-12T00:48:18.383Z,99.90
2023-05-12T00:49:18.360Z,104.00
2023-05-12T00:50:18.571Z,99.59
2023-05-12T00:51:18.350Z,89.59
2023-05-12T00:52:18.350Z,110.59
2023-05-12T00:53:18.331Z,103.09
2023-05-12T00:54:18.311Z,112.69
2023-05-12T00:55:18.300Z,99.69
2023-05-12T00:56:18.279Z,120.90
2023-05-12T00:57:18.275Z,101.00
2023-05-12T00:58:18.260Z,89.30
2023-05-12T00:59:18.258Z,100.69
2023-05-12T01:00:18.633Z,101.30
2023-05-12T01:01:18.251Z,119.50
2023-05-12T01:02:18.240Z,106.30
2023-05-12T01:03:18.259Z,89.00
2023-05-12T01:04:18.214Z,86.50
2023-05-12T01:05:18.198Z,103.69
2023-05-12T01:06:18.167Z,107.40
2023-05-12T01:07:18.176Z,96.40
2023-05-12T01:08:18.158Z,94.90
2023-05-12T01:09:18.163Z,98.50
2023-05-12T01:10:18.611Z,101.90
2023-05-12T01:11:18.144Z,89.69
2023-05-12T01:12:18.122Z,81.50
2023-05-12T01:13:18.122Z,100.50
2023-05-12T01:14:18.078Z,79.00
2023-05-12T01:15:18.086Z,84.50
2023-05-12T01:16:18.060Z,86.30
2023-05-12T01:17:18.064Z,98.80
2023-05-12T01:18:18.093Z,89.90
2023-05-12T01:19:18.096Z,101.50
2023-05-12T01:20:18.408Z,98.00
2023-05-12T01:21:18.016Z,77.69
2023-05-12T01:22:18.013Z,100.50
2023-05-12T01:23:18.027Z,86.69
2023-05-12T01:24:17.987Z,74.80
2023-05-12T01:25:17.978Z,91.30
2023-05-12T01:26:17.988Z,90.59
2023-05-12T01:27:18.003Z,88.19
2023-05-12T01:28:17.930Z,82.90
2023-05-12T01:29:17.935Z,95.00
2023-05-12T01:30:18.088Z,103.90
2023-05-12T01:31:18.929Z,105.00
2023-05-12T01:32:17.895Z,103.69
2023-05-12T01:33:17.889Z,92.59
2023-05-12T01:34:17.863Z,108.59
2023-05-12T01:35:17.876Z,90.00
2023-05-12T01:36:17.872Z,108.69
2023-05-12T01:37:17.862Z,82.59
2023-05-12T01:38:17.831Z,103.90
2023-05-12T01:39:17.852Z,108.69
2023-05-12T01:40:17.918Z,96.09
2023-05-12T01:41:17.805Z,84.80
2023-05-12T01:42:17.828Z,114.59
2023-05-12T01:43:17.806Z,88.30
2023-05-12T01:44:17.766Z,99.80
2023-05-12T01:45:17.750Z,82.30
2023-05-12T01:46:17.738Z,100.40
2023-05-12T01:47:17.746Z,90.30
2023-05-12T01:48:17.716Z,97.40
2023-05-12T01:49:17.708Z,90.69
2023-05-12T01:50:17.838Z,79.80
2023-05-12T01:51:17.700Z,80.00
2023-05-12T01:52:17.694Z,98.50
2023-05-12T01:53:17.668Z,82.69
2023-05-12T01:54:17.650Z,84.80
2023-05-12T01:55:17.655Z,101.00
2023-05-12T01:56:17.648Z,89.09
2023-05-12T01:57:17.641Z,79.50
2023-05-12T01:58:17.601Z,92.80
2023-05-12T01:59:17.672Z,80.69
2023-05-12T02:00:17.723Z,77.50
2023-05-12T02:01:17.589Z,93.00
2023-05-12T02:02:17.612Z,82.30
2023-05-12T02:03:17.650Z,77.30
2023-05-12T02:04:17.561Z,71.50
2023-05-12T02:05:17.533Z,85.69
2023-05-12T02:06:17.519Z,107.90
2023-05-12T02:07:17.517Z,89.00
2023-05-12T02:08:17.516Z,90.00
2023-05-12T02:09:17.507Z,77.90
2023-05-12T02:10:17.709Z,71.00
2023-05-12T02:11:17.507Z,71.59
2023-05-12T02:12:17.469Z,82.09
2023-05-12T02:13:17.461Z,63.90
2023-05-12T02:14:17.431Z,76.90
2023-05-12T02:15:17.431Z,63.29
2023-05-12T02:16:17.452Z,77.90
2023-05-12T02:17:17.404Z,68.00
2023-05-12T02:18:17.391Z,78.59
2023-05-12T02:19:17.374Z,71.09
2023-05-12T02:20:17.561Z,68.30
2023-05-12T02:21:17.368Z,71.80
2023-05-12T02:22:17.353Z,66.69
2023-05-12T02:23:17.354Z,70.90
2023-05-12T02:24:17.368Z,78.19
2023-05-12T02:25:17.356Z,74.50
2023-05-12T02:26:17.340Z,74.09
2023-05-12T02:27:17.341Z,92.90
2023-05-12T02:28:17.283Z,76.00
2023-05-12T02:29:17.269Z,76.90
2023-05-12T02:30:17.325Z,61.00
2023-05-12T02:31:17.247Z,66.00
2023-05-12T02:32:17.274Z,61.59
2023-05-12T02:33:17.235Z,69.00
2023-05-12T02:34:17.220Z,59.90
2023-05-12T02:35:17.206Z,62.20
2023-05-12T02:36:17.213Z,54.09
2023-05-12T02:37:17.189Z,70.19
2023-05-12T02:38:17.207Z,57.29
2023-05-12T02:39:17.166Z,56.79
2023-05-12T02:40:17.352Z,53.00
2023-05-12T02:41:17.152Z,58.70
2023-05-12T02:42:17.137Z,57.59
2023-05-12T02:43:17.117Z,57.09
2023-05-12T02:44:17.108Z,69.19
2023-05-12T02:45:17.091Z,79.00
2023-05-12T02:46:17.123Z,59.59
2023-05-12T02:47:17.072Z,58.90
2023-05-12T02:48:17.078Z,61.40
2023-05-12T02:49:17.081Z,66.59
2023-05-12T02:50:17.096Z,54.09
2023-05-12T02:51:17.028Z,65.09
2023-05-12T02:52:17.065Z,65.90
2023-05-12T02:53:17.018Z,58.00
2023-05-12T02:54:17.029Z,64.00
2023-05-12T02:55:17.001Z,58.00
2023-05-12T02:56:17.086Z,65.09
2023-05-12T02:57:16.969Z,63.29
2023-05-12T02:58:16.972Z,67.40
2023-05-12T02:59:16.953Z,62.79
2023-05-12T03:00:17.022Z,66.69
2023-05-12T03:01:16.966Z,69.80
2023-05-12T03:02:16.992Z,65.19
2023-05-12T03:03:17.011Z,62.40
2023-05-12T03:04:16.923Z,87.90
2023-05-12T03:05:16.888Z,91.80
2023-05-12T03:06:16.893Z,64.00
2023-05-12T03:07:16.869Z,75.40
2023-05-12T03:08:16.875Z,76.19
2023-05-12T03:09:16.850Z,65.50
2023-05-12T03:10:16.950Z,93.00
2023-05-12T03:11:16.829Z,69.50
2023-05-12T03:12:16.869Z,78.19
2023-05-12T03:13:16.810Z,93.50
2023-05-12T03:14:16.801Z,77.19
2023-05-12T03:15:16.786Z,66.59
2023-05-12T03:16:18.834Z,63.29
2023-05-12T03:17:16.796Z,69.40
2023-05-12T03:18:16.764Z,80.80
2023-05-12T03:19:16.736Z,68.90
2023-05-12T03:20:16.746Z,66.50
2023-05-12T03:21:16.713Z,72.09
2023-05-12T03:22:16.711Z,75.80
2023-05-12T03:23:16.691Z,92.59
2023-05-12T03:24:16.696Z,87.00
2023-05-12T03:25:16.672Z,85.59
2023-05-12T03:26:16.677Z,96.59
2023-05-12T03:27:16.610Z,98.40
2023-05-12T03:28:16.748Z,66.19
2023-05-12T03:29:16.572Z,71.40
2023-05-12T03:30:16.602Z,75.50
2023-05-12T03:31:16.615Z,77.30
2023-05-12T03:32:16.546Z,55.59
2023-05-12T03:33:16.523Z,80.50
2023-05-12T03:34:16.536Z,83.40
2023-05-12T03:35:16.516Z,85.80
2023-05-12T03:36:16.500Z,67.80
2023-05-12T03:37:16.492Z,70.30
2023-05-12T03:38:16.492Z,80.00
2023-05-12T03:39:16.483Z,81.40
2023-05-12T03:40:16.462Z,97.40
2023-05-12T03:41:16.472Z,77.00
2023-05-12T03:42:16.463Z,83.80
2023-05-12T03:43:16.422Z,83.50
2023-05-12T03:44:16.458Z,91.09
2023-05-12T03:45:16.392Z,89.50
2023-05-12T03:46:16.437Z,84.80
2023-05-12T03:47:16.431Z,85.59
2023-05-12T03:48:16.424Z,95.00
2023-05-12T03:49:16.355Z,86.69
2023-05-12T03:50:16.376Z,104.50
2023-05-12T03:51:16.330Z,115.09
2023-05-12T03:52:16.346Z,104.90
2023-05-12T03:53:16.316Z,96.59
2023-05-12T03:54:16.338Z,82.09
2023-05-12T03:55:16.310Z,93.90
2023-05-12T03:56:16.310Z,98.30
2023-05-12T03:57:16.282Z,134.10
2023-05-12T03:58:16.265Z,98.19
2023-05-12T03:59:16.297Z,103.00
2023-05-12T04:00:16.261Z,119.40
2023-05-12T04:01:16.229Z,99.90
2023-05-12T04:02:16.248Z,102.69
2023-05-12T04:03:16.287Z,102.09
2023-05-12T04:04:16.228Z,100.50
2023-05-12T04:05:16.208Z,104.59
2023-05-12T04:06:16.188Z,95.80
2023-05-12T04:07:16.174Z,101.00
2023-05-12T04:08:16.168Z,85.40
2023-05-12T04:09:16.160Z,86.80
2023-05-12T04:10:16.170Z,94.19
2023-05-12T04:11:16.115Z,112.80
2023-05-12T04:12:16.122Z,113.59
2023-05-12T04:13:16.094Z,91.19
2023-05-12T04:14:16.106Z,95.09
2023-05-12T04:15:16.078Z,102.50
2023-05-12T04:16:16.129Z,97.19
2023-05-12T04:17:16.054Z,95.30
2023-05-12T04:18:16.056Z,84.09
2023-05-12T04:19:16.047Z,106.50
2023-05-12T04:20:16.039Z,106.80
2023-05-12T04:21:16.036Z,99.40
2023-05-12T04:22:16.008Z,72.90
2023-05-12T04:23:15.997Z,88.90
2023-05-12T04:24:16.000Z,114.69
2023-05-12T04:25:15.983Z,90.00
2023-05-12T04:26:15.966Z,101.50
2023-05-12T04:27:15.947Z,91.40
2023-05-12T04:28:15.953Z,107.50
2023-05-12T04:29:15.929Z,109.59
2023-05-12T04:30:15.921Z,117.90
2023-05-12T04:31:15.918Z,105.30
2023-05-12T04:32:16.195Z,124.00
2023-05-12T04:33:15.885Z,82.00
2023-05-12T04:34:15.883Z,98.19
2023-05-12T04:35:15.868Z,91.00
2023-05-12T04:36:15.870Z,89.30
2023-05-12T04:37:15.869Z,110.30
2023-05-12T04:38:15.867Z,82.80
2023-05-12T04:39:15.861Z,89.19
2023-05-12T04:40:15.823Z,88.90
2023-05-12T04:41:15.806Z,100.50
2023-05-12T04:42:15.792Z,94.50
2023-05-12T04:44:15.785Z,84.50
2023-05-12T04:45:15.750Z,74.30
2023-05-12T04:46:15.837Z,84.90
2023-05-12T04:47:15.738Z,109.69
2023-05-12T04:48:15.759Z,105.00
2023-05-12T04:49:15.723Z,90.59
2023-05-12T04:50:15.785Z,103.40
2023-05-12T04:51:15.700Z,96.00
2023-05-12T04:52:15.697Z,102.80
2023-05-12T04:53:15.685Z,90.69
2023-05-12T04:54:15.687Z,102.30
2023-05-12T04:55:15.682Z,86.00
2023-05-12T04:56:15.655Z,70.80
2023-05-12T04:57:15.670Z,80.30
2023-05-12T04:58:15.678Z,79.40
2023-05-12T04:59:15.610Z,67.69
2023-05-12T05:00:15.630Z,70.69
2023-05-12T05:01:15.640Z,70.69
2023-05-12T05:02:15.609Z,80.30
2023-05-12T05:03:15.656Z,94.19
2023-05-12T05:04:15.591Z,74.50
2023-05-12T05:05:15.541Z,65.19
2023-05-12T05:06:15.544Z,75.40
2023-05-12T05:07:15.523Z,80.69
2023-05-12T05:08:15.516Z,75.19
2023-05-12T05:09:15.513Z,70.40
2023-05-12T05:10:15.507Z,68.90
2023-05-12T05:11:15.497Z,73.69
2023-05-12T05:12:15.490Z,79.40
2023-05-12T05:13:15.462Z,84.80
2023-05-12T05:14:15.460Z,79.40
2023-05-12T05:15:15.452Z,72.19
2023-05-12T05:16:15.476Z,77.90
2023-05-12T05:17:15.420Z,79.80
2023-05-12T05:18:15.443Z,74.09
2023-05-12T05:19:22.870Z,72.40
2023-05-12T05:20:16.578Z,94.90
2023-05-12T05:21:15.400Z,77.30
2023-05-12T05:22:15.366Z,85.80
2023-05-12T05:23:15.347Z,69.30
2023-05-12T05:24:15.343Z,61.90
2023-05-12T05:25:15.337Z,67.40
2023-05-12T05:26:15.338Z,68.09
2023-05-12T05:27:15.317Z,65.90
2023-05-12T05:28:15.297Z,67.59
2023-05-12T05:29:15.293Z,64.19
2023-05-12T05:30:15.285Z,66.09
2023-05-12T05:31:15.287Z,66.00
2023-05-12T05:32:15.257Z,61.29
2023-05-12T05:33:15.241Z,64.09
2023-05-12T05:34:15.290Z,56.70
2023-05-12T05:35:15.226Z,69.40
2023-05-12T05:36:15.252Z,63.09
2023-05-12T05:37:15.200Z,61.70
2023-05-12T05:38:15.197Z,68.50
2023-05-12T05:39:15.183Z,49.70
2023-05-12T05:40:15.196Z,44.70
2023-05-12T05:41:15.152Z,47.59
2023-05-12T05:42:15.147Z,42.40
2023-05-12T05:43:15.134Z,53.59
2023-05-12T05:44:15.130Z,48.29
2023-05-12T05:45:15.108Z,45.59
2023-05-12T05:46:15.132Z,42.29
2023-05-12T05:47:15.149Z,38.70
2023-05-12T05:48:15.083Z,40.00
2023-05-12T05:49:15.076Z,36.20
2023-05-12T05:50:15.058Z,34.79
2023-05-12T05:51:15.050Z,41.50
2023-05-12T05:52:15.083Z,42.09
2023-05-12T05:53:15.356Z,37.59
2023-05-12T05:54:15.019Z,32.29
2023-05-12T05:55:15.001Z,42.79
2023-05-12T05:56:14.999Z,32.00
2023-05-12T05:57:14.982Z,34.40
2023-05-12T05:58:14.968Z,25.79
2023-05-12T05:59:14.962Z,32.09
2023-05-12T06:00:14.968Z,34.50
2023-05-12T06:01:14.942Z,21.89
2023-05-12T06:02:14.971Z,26.60
2023-05-12T06:03:15.017Z,26.10
2023-05-12T06:04:14.927Z,24.70
2023-05-12T06:05:14.885Z,22.10
2023-05-12T06:06:14.890Z,21.39
2023-05-12T06:07:14.885Z,26.29
2023-05-12T06:08:14.894Z,31.70
2023-05-12T06:09:14.846Z,32.90
2023-05-12T06:10:14.835Z,26.89
2023-05-12T06:11:15.957Z,25.79
2023-05-12T06:12:14.822Z,29.10
2023-05-12T06:13:14.801Z,26.10
2023-05-12T06:14:14.795Z,18.79
2023-05-12T06:15:14.783Z,18.20
2023-05-12T06:16:14.818Z,20.60
2023-05-12T06:17:14.759Z,17.10
2023-05-12T06:18:14.760Z,17.70
2023-05-12T06:19:14.753Z,16.60
2023-05-12T06:20:14.733Z,16.39
2023-05-12T06:21:14.717Z,14.50
2023-05-12T06:22:14.718Z,14.30
2023-05-12T06:23:14.702Z,13.39
2023-05-12T06:24:14.740Z,13.00
2023-05-12T06:25:14.670Z,13.00
2023-05-12T06:26:14.670Z,14.80
2023-05-12T06:27:14.662Z,16.50
2023-05-12T06:28:14.647Z,12.10
2023-05-12T06:29:14.634Z,13.80
2023-05-12T06:30:16.133Z,19.29
2023-05-12T06:31:14.620Z,14.00
2023-05-12T06:32:14.655Z,15.69
2023-05-12T06:33:14.601Z,13.80
2023-05-12T06:34:14.577Z,18.79
2023-05-12T06:35:14.586Z,17.60
2023-05-12T06:36:14.566Z,19.70
2023-05-12T06:37:14.553Z,15.39
2023-05-12T06:38:14.544Z,15.80
2023-05-12T06:39:14.541Z,14.00
2023-05-12T06:40:14.541Z,13.69
2023-05-12T06:41:14.524Z,15.30
2023-05-12T06:42:14.490Z,14.69
2023-05-12T06:43:14.489Z,13.89
2023-05-12T06:44:14.478Z,16.00
2023-05-12T06:45:14.469Z,16.70
2023-05-12T06:46:14.509Z,13.69
2023-05-12T06:47:14.448Z,16.39
2023-05-12T06:48:14.434Z,15.89
2023-05-12T06:49:14.434Z,14.39
2023-05-12T06:50:14.406Z,14.80
2023-05-12T06:51:14.416Z,13.50
2023-05-12T06:52:14.387Z,15.00
2023-05-12T06:53:14.392Z,16.00
2023-05-12T06:54:14.362Z,13.10
2023-05-12T06:55:14.368Z,14.50
2023-05-12T06:56:14.365Z,13.00
2023-05-12T06:57:14.342Z,12.69
2023-05-12T06:58:14.323Z,14.39
2023-05-12T06:59:14.356Z,17.29
2023-05-12T07:00:14.304Z,13.19
2023-05-12T07:01:14.326Z,12.00
2023-05-12T07:02:14.294Z,11.39
2023-05-12T07:03:14.567Z,15.69
2023-05-12T07:04:14.351Z,12.50
2023-05-12T07:05:14.286Z,15.69
2023-05-12T07:06:14.300Z,14.00
2023-05-12T07:07:14.246Z,13.50
2023-05-12T07:08:14.228Z,11.50
2023-05-12T07:09:14.210Z,11.10
2023-05-12T07:10:14.215Z,10.89
2023-05-12T07:11:14.188Z,10.69
2023-05-12T07:12:14.255Z,13.69
2023-05-12T07:13:14.179Z,17.20
2023-05-12T07:14:14.182Z,15.50
2023-05-12T07:15:14.157Z,14.69
2023-05-12T07:16:14.171Z,13.89
2023-05-12T07:17:14.125Z,15.50
2023-05-12T07:18:14.111Z,15.10
2023-05-12T07:19:14.178Z,17.39
2023-05-12T07:20:14.113Z,12.80
2023-05-12T07:21:14.093Z,13.89
2023-05-12T07:22:14.066Z,13.19
2023-05-12T07:23:14.067Z,13.30
2023-05-12T07:24:14.058Z,15.00
2023-05-12T07:25:14.083Z,12.39
2023-05-12T07:26:14.014Z,14.69
2023-05-12T07:27:14.024Z,11.60
2023-05-12T07:28:14.077Z,13.30
2023-05-12T07:29:14.206Z,12.60
2023-05-12T07:30:14.001Z,11.10
2023-05-12T07:31:14.054Z,12.80
2023-05-12T07:32:13.965Z,13.00
2023-05-12T07:33:13.992Z,10.30
2023-05-12T07:34:13.930Z,12.60
2023-05-12T07:35:13.934Z,15.60
2023-05-12T07:36:13.922Z,14.30
2023-05-12T07:37:13.903Z,17.70
2023-05-12T07:38:13.898Z,14.00
2023-05-12T07:39:13.885Z,13.00
2023-05-12T07:40:13.869Z,15.19
2023-05-12T07:41:13.872Z,18.89
2023-05-12T07:42:13.847Z,13.80
2023-05-12T07:43:13.853Z,12.00
2023-05-12T07:44:13.854Z,20.10
2023-05-12T07:45:13.823Z,15.00
2023-05-12T07:46:13.809Z,17.39
2023-05-12T07:47:13.821Z,16.89
2023-05-12T07:48:13.842Z,13.19
2023-05-12T07:49:13.781Z,16.70
2023-05-12T07:50:13.762Z,17.29
2023-05-12T07:51:13.760Z,15.30
2023-05-12T07:52:13.741Z,12.60
2023-05-12T07:53:13.732Z,14.00
2023-05-12T07:54:13.719Z,12.89
2023-05-12T07:55:13.713Z,12.50
2023-05-12T07:56:13.699Z,14.39
2023-05-12T07:57:13.690Z,11.30
2023-05-12T07:58:13.679Z,13.30
2023-05-12T07:59:13.672Z,12.30
2023-05-12T08:00:13.671Z,13.00
2023-05-12T08:01:13.651Z,10.89
2023-05-12T08:02:13.656Z,12.50
2023-05-12T08:03:13.737Z,14.60
2023-05-12T08:04:13.722Z,14.00
2023-05-12T08:05:13.610Z,15.50
2023-05-12T08:06:13.594Z,10.00
2023-05-12T08:07:13.594Z,11.60
2023-05-12T08:08:13.564Z,12.39
2023-05-12T08:09:13.568Z,12.30
2023-05-12T08:10:13.551Z,13.50
2023-05-12T08:11:13.546Z,11.10
2023-05-12T08:12:13.541Z,11.89
2023-05-12T08:13:13.518Z,12.19
2023-05-12T08:14:13.509Z,10.50
2023-05-12T08:15:13.557Z,10.39
2023-05-12T08:16:13.587Z,10.10
2023-05-12T08:17:13.612Z,10.60
2023-05-12T08:18:13.492Z,8.80
2023-05-12T08:19:13.528Z,7.80
2023-05-12T08:20:13.442Z,8.30
2023-05-12T08:21:13.454Z,9.50
2023-05-12T08:22:13.413Z,11.00
2023-05-12T08:23:13.409Z,10.89
2023-05-12T08:24:13.399Z,11.80
2023-05-12T08:25:13.392Z,11.80
2023-05-12T08:26:13.376Z,11.50
2023-05-12T08:27:13.368Z,10.19
2023-05-12T08:28:13.351Z,10.80
2023-05-12T08:29:13.343Z,10.89
2023-05-12T08:30:13.329Z,10.80
2023-05-12T08:31:13.424Z,9.60
2023-05-12T08:32:13.343Z,10.50
2023-05-12T08:33:13.305Z,10.60
2023-05-12T08:34:13.282Z,10.50
2023-05-12T08:35:13.379Z,10.00
2023-05-12T08:36:13.270Z,9.19
2023-05-12T08:37:13.258Z,10.69
2023-05-12T08:38:13.245Z,8.69
2023-05-12T08:39:13.239Z,8.80
2023-05-12T08:40:13.221Z,10.00
2023-05-12T08:41:13.232Z,9.60
2023-05-12T08:42:13.207Z,9.80
2023-05-12T08:43:13.206Z,9.50
2023-05-12T08:44:13.180Z,8.69
2023-05-12T08:45:13.250Z,9.39
2023-05-12T08:46:13.258Z,8.19
2023-05-12T08:47:13.153Z,8.39
2023-05-12T08:48:13.204Z,9.30
2023-05-12T08:49:13.132Z,8.19
2023-05-12T08:50:13.113Z,10.10
2023-05-12T08:51:13.232Z,10.00
2023-05-12T08:52:13.088Z,7.50
2023-05-12T08:53:13.087Z,9.80
2023-05-12T08:54:13.069Z,8.89
2023-05-12T08:55:13.095Z,13.89
2023-05-12T08:57:13.053Z,12.19
2023-05-12T08:58:13.025Z,10.60
2023-05-12T08:59:13.020Z,11.60
2023-05-12T09:00:13.009Z,9.69
2023-05-12T09:01:13.008Z,9.19
2023-05-12T09:02:13.011Z,10.60
2023-05-12T09:03:13.029Z,9.89
2023-05-12T09:04:13.055Z,9.19
2023-05-12T09:05:12.974Z,10.10
2023-05-12T09:06:12.958Z,10.19
2023-05-12T09:07:12.944Z,10.10
2023-05-12T09:08:12.908Z,9.80
2023-05-12T09:09:12.912Z,7.40
2023-05-12T09:10:22.490Z,8.69
2023-05-12T09:11:12.898Z,9.19
2023-05-12T09:12:13.607Z,9.10
2023-05-12T09:13:12.871Z,10.30
2023-05-12T09:14:12.851Z,10.69
2023-05-12T09:15:12.937Z,74.40
2023-05-12T09:16:12.854Z,9.80
2023-05-12T09:17:12.824Z,7.80
2023-05-12T09:18:12.832Z,8.10
2023-05-12T09:19:12.933Z,9.19
2023-05-12T09:20:23.828Z,7.40
2023-05-12T09:21:13.821Z,6.59
2023-05-12T09:22:12.765Z,8.50
2023-05-12T09:23:12.764Z,6.90
2023-05-12T09:24:12.755Z,9.39
2023-05-12T09:25:14.590Z,7.19
2023-05-12T09:26:12.726Z,6.30
2023-05-12T09:27:12.740Z,9.50
2023-05-12T09:28:12.714Z,6.80
2023-05-12T09:29:20.828Z,8.10
2023-05-12T09:30:12.684Z,6.19
2023-05-12T09:31:14.691Z,8.50
2023-05-12T09:32:12.721Z,6.50
2023-05-12T09:33:12.736Z,6.19
2023-05-12T09:34:12.633Z,8.89
2023-05-12T09:35:12.631Z,6.59
2023-05-12T09:36:12.648Z,8.30
2023-05-12T09:37:15.047Z,7.09
2023-05-12T09:38:12.596Z,8.00
2023-05-12T09:39:12.586Z,7.80
2023-05-12T09:40:12.577Z,10.19
2023-05-12T09:41:12.569Z,8.10
2023-05-12T09:42:12.562Z,9.89
2023-05-12T09:43:15.354Z,9.60
2023-05-12T09:44:12.546Z,12.30
2023-05-12T09:45:12.529Z,13.19
2023-05-12T09:46:12.575Z,10.10
2023-05-12T09:47:12.499Z,7.90
2023-05-12T09:48:12.496Z,9.60
2023-05-12T09:49:12.483Z,10.30
2023-05-12T09:50:12.464Z,12.30
2023-05-12T09:51:12.473Z,10.39
2023-05-12T09:52:12.473Z,11.60
2023-05-12T09:53:12.438Z,13.00
2023-05-12T09:54:12.427Z,15.50
2023-05-12T09:55:12.416Z,15.60
2023-05-12T09:56:12.393Z,16.70
2023-05-12T09:57:12.397Z,15.39
2023-05-12T09:58:12.389Z,12.60
2023-05-12T09:59:12.373Z,12.60
2023-05-12T10:00:28.634Z,10.69
2023-05-12T10:01:22.600Z,16.29
2023-05-12T10:02:12.358Z,15.60
2023-05-12T10:03:12.407Z,16.89
2023-05-12T10:04:12.323Z,14.10
2023-05-12T10:05:12.377Z,10.80
2023-05-12T10:06:12.294Z,9.30
2023-05-12T10:07:12.284Z,8.39
2023-05-12T10:08:12.401Z,7.80
2023-05-12T10:09:12.265Z,5.90
2023-05-12T10:10:12.244Z,5.09
2023-05-12T10:11:12.233Z,7.00
2023-05-12T10:12:12.221Z,4.80
2023-05-12T10:13:12.227Z,6.80
2023-05-12T10:14:12.405Z,5.69
2023-05-12T10:15:12.199Z,8.30
2023-05-12T10:16:12.247Z,5.50
2023-05-12T10:17:12.225Z,6.00
2023-05-12T10:18:12.181Z,6.80
2023-05-12T10:19:12.197Z,6.50
2023-05-12T10:20:12.134Z,6.59
2023-05-12T10:21:12.175Z,5.90
2023-05-12T10:22:12.114Z,5.59
2023-05-12T10:23:12.122Z,5.90
2023-05-12T10:24:12.388Z,4.30
2023-05-12T10:25:12.088Z,4.19
2023-05-12T10:26:12.070Z,3.79
2023-05-12T10:27:12.096Z,3.29
2023-05-12T10:28:12.050Z,3.00
2023-05-12T10:29:12.048Z,4.09
2023-05-12T10:30:12.027Z,4.09
2023-05-12T10:31:12.065Z,4.19
2023-05-12T10:32:12.007Z,5.80
2023-05-12T10:33:12.009Z,4.50
2023-05-12T10:34:11.986Z,3.50
2023-05-12T10:35:11.978Z,3.59
2023-05-12T10:36:11.971Z,2.70
2023-05-12T10:37:11.977Z,3.50
2023-05-12T10:38:11.949Z,3.09
2023-05-12T10:39:11.945Z,7.09
2023-05-12T10:40:11.997Z,2.59
2023-05-12T10:41:11.922Z,3.20
2023-05-12T10:42:11.906Z,2.70
2023-05-12T10:43:11.896Z,2.09
2023-05-12T10:44:11.889Z,3.09
2023-05-12T10:45:11.876Z,2.29
2023-05-12T10:46:11.891Z,3.20
2023-05-12T10:47:13.111Z,2.29
2023-05-12T10:48:11.922Z,1.90
2023-05-12T10:49:11.837Z,2.00
2023-05-12T10:50:11.822Z,3.20
2023-05-12T10:51:11.807Z,1.90
2023-05-12T10:52:11.808Z,2.09
2023-05-12T10:53:11.790Z,3.70
2023-05-12T10:54:11.790Z,2.40
2023-05-12T10:55:11.877Z,1.39
2023-05-12T10:56:11.990Z,2.09
2023-05-12T10:57:13.913Z,2.29
2023-05-12T10:58:12.413Z,3.20
2023-05-12T10:59:12.047Z,3.00
2023-05-12T11:00:12.312Z,2.29
2023-05-12T11:01:12.094Z,2.90
2023-05-12T11:02:12.460Z,2.09
2023-05-12T11:03:11.984Z,2.79
2023-05-12T11:04:12.457Z,2.90
2023-05-12T11:05:17.367Z,2.00
2023-05-12T11:06:12.867Z,2.50
2023-05-12T11:07:12.150Z,4.00
2023-05-12T11:08:11.941Z,3.00
2023-05-12T11:09:12.895Z,2.00
2023-05-12T11:10:11.776Z,3.90
2023-05-12T11:11:11.609Z,2.79
2023-05-12T11:12:11.651Z,2.20
2023-05-12T11:13:11.572Z,2.50
2023-05-12T11:14:11.575Z,2.90
2023-05-12T11:15:11.549Z,2.59
2023-05-12T11:16:11.617Z,2.70
2023-05-12T11:17:11.531Z,2.90
2023-05-12T11:18:11.579Z,2.20
2023-05-12T11:19:11.637Z,2.40
2023-05-12T11:20:11.521Z,2.79
2023-05-12T11:21:11.483Z,3.09
2023-05-12T11:22:11.484Z,3.50
2023-05-12T11:23:11.491Z,3.59
2023-05-12T11:24:12.072Z,3.00
2023-05-12T11:25:11.535Z,2.50
2023-05-12T11:26:11.455Z,2.50
2023-05-12T11:27:11.430Z,3.29
2023-05-12T11:28:11.471Z,3.20
2023-05-12T11:29:11.403Z,3.70
2023-05-12T11:30:11.401Z,2.70
2023-05-12T11:31:11.384Z,3.09
2023-05-12T11:32:11.436Z,2.50
2023-05-12T11:33:11.391Z,3.29
2023-05-12T11:34:13.072Z,2.79
2023-05-12T11:35:11.334Z,4.09
2023-05-12T11:36:11.330Z,3.00
2023-05-12T11:37:11.317Z,3.09
2023-05-12T11:38:11.309Z,3.40
2023-05-12T11:39:11.290Z,2.79
2023-05-12T11:40:11.288Z,3.59
2023-05-12T11:41:11.265Z,3.50
2023-05-12T11:42:13.581Z,3.70
2023-05-12T11:43:11.251Z,3.20
2023-05-12T11:44:11.279Z,3.40
2023-05-12T11:45:11.224Z,2.50
2023-05-12T11:46:11.266Z,3.00
2023-05-12T11:47:11.204Z,2.50
2023-05-12T11:48:11.336Z,3.20
2023-05-12T11:49:11.190Z,2.90
2023-05-12T11:50:11.176Z,2.40
2023-05-12T11:51:11.167Z,2.90
2023-05-12T11:52:11.162Z,2.90
2023-05-12T11:53:11.145Z,2.70
2023-05-12T11:54:11.130Z,3.29
2023-05-12T11:55:11.113Z,2.50
2023-05-12T11:56:11.110Z,3.79
2023-05-12T11:57:11.101Z,3.00
2023-05-12T11:58:11.090Z,2.09
2023-05-12T11:59:11.077Z,4.59
2023-05-12T12:00:11.108Z,4.80
2023-05-12T12:01:11.053Z,3.40
2023-05-12T12:02:11.060Z,3.40
2023-05-12T12:03:11.177Z,2.79
2023-05-12T12:04:11.050Z,3.50
2023-05-12T12:05:11.013Z,2.40
2023-05-12T12:06:11.005Z,3.50
2023-05-12T12:07:10.986Z,3.20
2023-05-12T12:08:10.985Z,3.00
2023-05-12T12:09:10.970Z,3.09
2023-05-12T12:10:11.047Z,3.40
2023-05-12T12:11:10.953Z,2.50
2023-05-12T12:12:10.944Z,2.29
2023-05-12T12:13:10.933Z,2.40
2023-05-12T12:14:10.924Z,2.59
2023-05-12T12:15:10.907Z,1.70
2023-05-12T12:16:12.859Z,2.20
2023-05-12T12:17:10.886Z,2.09
2023-05-12T12:18:10.915Z,2.20
2023-05-12T12:19:10.969Z,2.79
2023-05-12T12:20:10.864Z,1.79
2023-05-12T12:21:10.836Z,2.90
2023-05-12T12:22:10.840Z,3.70
2023-05-12T12:23:10.821Z,1.79
2023-05-12T12:24:10.841Z,2.50
2023-05-12T12:25:10.799Z,2.40
2023-05-12T12:26:10.798Z,1.50
2023-05-12T12:27:10.776Z,2.90
2023-05-12T12:28:10.771Z,1.29
2023-05-12T12:29:10.765Z,2.59
2023-05-12T12:30:10.830Z,3.20
2023-05-12T12:31:10.788Z,2.40
2023-05-12T12:32:10.864Z,1.70
2023-05-12T12:33:10.767Z,1.60
2023-05-12T12:34:10.709Z,2.00
2023-05-12T12:35:10.687Z,2.90
2023-05-12T12:36:10.687Z,12.60
2023-05-12T12:37:10.678Z,1.39
2023-05-12T12:38:10.665Z,23.00
2023-05-12T12:39:10.646Z,4.69
2023-05-12T12:40:10.681Z,3.09
2023-05-12T12:41:10.624Z,3.50
2023-05-12T12:42:10.616Z,7.69
2023-05-12T12:43:10.622Z,26.79
2023-05-12T12:44:10.612Z,10.19
2023-05-12T12:45:10.578Z,5.50
2023-05-12T12:46:10.582Z,29.20
2023-05-12T12:47:10.659Z,37.59
2023-05-12T12:48:10.718Z,3.50
2023-05-12T12:49:10.539Z,2.50
2023-05-12T12:50:10.606Z,2.09
2023-05-12T12:51:10.520Z,2.50
2023-05-12T12:52:10.518Z,2.79
2023-05-12T12:53:10.498Z,2.29
2023-05-12T12:54:10.502Z,2.90
2023-05-12T12:55:10.477Z,3.90
2023-05-12T12:56:10.481Z,4.30
2023-05-12T12:57:10.451Z,3.09
2023-05-12T12:58:10.449Z,1.39
2023-05-12T12:59:10.439Z,2.50
2023-05-12T13:00:10.437Z,2.59